Nearby METAR Reports

 

KLEX - Lexington, Kentucky, USA
Distance from station: WNW 7mi, 11km
Updated: Wed, 20-Jun-2018 3:05pm EDT
Light thunderstorm, Rain, Mostly cloudy
Light thunderstorm, Rain, Mostly cloudy
 Wind from SW
Wind: SW 7 mph , 11 km/h
Temperature: 81°F , 27°C
Heat Index: 86°F , 30°C
Dew Point: 73°F , 23°C
Humidity: 79%
Barometer: 29.88 inHg , 1011.9 hPa
Summary: Light thunderstorm, Rain
Clouds: Mostly cloudy
Visibility: 10 miles , 16 km
Cloud details: Few Clouds 2600 ft
Partly cloudy 7500 ft
Mostly cloudy 9500 ft
2018/06/20 19:05 KLEX 201905Z 23006KT 10SM -TSRA FEW026 SCT075 BKN095 27/23 A2988 RMK AO2 LTG DSNT ALQDS P0003 T02670233
KFFT - Frankfort, Kentucky, USA
Distance from station: WNW 26mi, 42km
Updated: Wed, 20-Jun-2018 3:12pm EDT
Thunderstorm, Overcast
Thunderstorm, Overcast
 Wind from NW
Wind: NW 7 mph , 11 km/h
Temperature: 79°F , 26°C
Dew Point: 73°F , 23°C
Humidity: 84%
Barometer: 29.87 inHg , 1011.5 hPa
Summary: Thunderstorm
Clouds: Overcast
Visibility: 10 miles , 16 km
Cloud details: Few Clouds 3000 ft
Mostly cloudy 4200 ft
Overcast 7500 ft
2018/06/20 19:12 KFFT 201912Z AUTO 32006KT 10SM TS FEW030 BKN042 OVC075 26/23 A2987 RMK AO2 LTG DSNT ALQDS RAE09 P0001 T02560228
 
KIOB - Mount Sterling, Kentucky, USA
Distance from station: E 27mi, 44km
Updated: Wed, 20-Jun-2018 2:55pm EDT
Mostly cloudy
Mostly cloudy
 Wind from N
Wind: N 5 mph , 7 km/h
Temperature: 79°F , 26°C
Dew Point: 73°F , 23°C
Humidity: 84%
Barometer: 29.91 inHg , 1012.9 hPa
Clouds: Mostly cloudy
Visibility: 10 miles , 16 km
Cloud details: Partly cloudy 4200 ft
Partly cloudy 5000 ft
Mostly cloudy 7500 ft
2018/06/20 18:55 KIOB 201855Z AUTO 36004KT 10SM SCT042 SCT050 BKN075 26/23 A2991 RMK AO2 P0007
KDVK - Danville, Kentucky, USA
Distance from station: SSW 33mi, 53km
Updated: Wed, 20-Jun-2018 2:55pm EDT
Partly cloudy
Partly cloudy
 Wind from W
Wind: W 9 mph , 15 km/h
Temperature: 90°F , 32°C
Heat Index: 96°F , 36°C
Dew Point: 70°F , 21°C
Humidity: 52%
Barometer: 29.92 inHg , 1013.2 hPa
Clouds: Partly cloudy
Visibility: 10 miles , 16 km
Cloud details: Partly cloudy 3900 ft
Partly cloudy 4600 ft
Partly cloudy 5500 ft
2018/06/20 18:55 KDVK 201855Z AUTO 27008KT 10SM SCT039 SCT046 SCT055 32/21 A2992 RMK AO2